Time;durP1;ratioP1;P1;durP2;ratioP2;P2;SDS_P1;SDS_P2;PMS_P1;PMS_P2;Temp;Humidity;BMP_temperature;BMP_pressure;BME280_temperature;BME280_humidity;BME280_pressure;Samples;Min_cycle;Max_cycle;Signal;HPM_P1;HPM_P2
2023/12/23 00:02:13;;;;;;;;;1.33;1.00;;;;;;;;5099988;27;45455;-70
2023/12/23 00:04:38;;;;;;;;;1.00;0.00;;;;;;;;5099427;27;45489;-76
2023/12/23 00:07:04;;;;;;;;;1.67;1.00;;;;;;;;5100465;27;45504;-76
2023/12/23 00:09:30;;;;;;;;;1.00;1.00;;;;;;;;5100077;27;45456;-76
2023/12/23 00:11:55;;;;;;;;;1.00;0.67;;;;;;;;5099825;27;45422;-75
2023/12/23 00:14:20;;;;;;;;;1.00;1.00;;;;;;;;5100093;27;45446;-70
2023/12/23 00:16:47;;;;;;;;;0.00;0.00;;;;;;;;5100473;27;45311;-70
2023/12/23 00:19:13;;;;;;;;;2.00;1.00;;;;;;;;5090305;27;45337;-72
2023/12/23 00:21:38;;;;;;;;;0.67;0.67;;;;;;;;5079054;27;45479;-76
2023/12/23 00:24:04;;;;;;;;;2.00;1.00;;;;;;;;5079223;27;45341;-71
2023/12/23 00:26:29;;;;;;;;;0.00;0.00;;;;;;;;5080092;27;45528;-70
2023/12/23 00:28:55;;;;;;;;;2.00;1.00;;;;;;;;5079354;28;45381;-71
2023/12/23 00:31:21;;;;;;;;;1.00;1.00;;;;;;;;5079270;28;45408;-71
2023/12/23 00:33:49;;;;;;;;;1.00;1.00;;;;;;;;5079573;27;45410;-70
2023/12/23 00:36:15;;;;;;;;;0.00;0.00;;;;;;;;5079527;27;45529;-77
2023/12/23 00:38:40;;;;;;;;;1.00;1.00;;;;;;;;5079130;27;46181;-78
2023/12/23 00:41:06;;;;;;;;;0.00;0.00;;;;;;;;5079323;27;45392;-77
2023/12/23 00:43:31;;;;;;;;;2.67;0.00;;;;;;;;5079801;27;45374;-78
2023/12/23 00:45:57;;;;;;;;;1.00;1.00;;;;;;;;5079580;27;45399;-71
2023/12/23 00:48:22;;;;;;;;;2.00;1.00;;;;;;;;5079144;27;45304;-75
2023/12/23 00:50:47;;;;;;;;;1.00;0.00;;;;;;;;5079328;27;45333;-77
2023/12/23 00:53:13;;;;;;;;;0.33;0.33;;;;;;;;5079224;27;45601;-77
2023/12/23 00:55:39;;;;;;;;;1.33;1.00;;;;;;;;5079250;27;45330;-78
2023/12/23 00:58:04;;;;;;;;;0.00;0.00;;;;;;;;5079340;27;45429;-77
2023/12/23 01:00:29;;;;;;;;;1.00;1.00;;;;;;;;5078853;27;45320;-77
2023/12/23 01:02:55;;;;;;;;;1.00;1.00;;;;;;;;5079090;27;45353;-77
2023/12/23 01:05:20;;;;;;;;;1.67;1.00;;;;;;;;5079167;27;45458;-78
2023/12/23 01:07:46;;;;;;;;;1.00;1.00;;;;;;;;5078845;27;46054;-77
2023/12/23 01:10:11;;;;;;;;;1.00;0.00;;;;;;;;5078641;27;45476;-77
2023/12/23 01:12:36;;;;;;;;;0.00;0.00;;;;;;;;5078926;28;45453;-70
2023/12/23 01:15:02;;;;;;;;;1.00;1.00;;;;;;;;5079148;27;45433;-78
2023/12/23 01:17:28;;;;;;;;;0.00;0.00;;;;;;;;5078432;27;45462;-78
2023/12/23 01:19:53;;;;;;;;;1.33;0.00;;;;;;;;5078514;28;45510;-78
2023/12/23 01:22:18;;;;;;;;;1.00;0.67;;;;;;;;5078773;27;45412;-77
2023/12/23 01:24:44;;;;;;;;;1.00;1.00;;;;;;;;5078808;27;45289;-78
2023/12/23 01:27:09;;;;;;;;;0.00;0.00;;;;;;;;5078361;27;45986;-77
2023/12/23 01:29:34;;;;;;;;;0.00;0.00;;;;;;;;5078634;27;45305;-72
2023/12/23 01:32:00;;;;;;;;;1.00;0.00;;;;;;;;5078573;27;45390;-77
2023/12/23 01:34:25;;;;;;;;;0.00;0.00;;;;;;;;5078663;27;45410;-78
2023/12/23 01:36:50;;;;;;;;;1.33;0.33;;;;;;;;5078362;27;46017;-78
2023/12/23 01:39:16;;;;;;;;;0.00;0.00;;;;;;;;5078240;27;45400;-76
2023/12/23 01:41:41;;;;;;;;;1.00;0.00;;;;;;;;5078554;27;45429;-77
2023/12/23 01:44:07;;;;;;;;;0.67;0.00;;;;;;;;5079056;27;45262;-77
2023/12/23 01:46:32;;;;;;;;;2.00;0.67;;;;;;;;5078077;28;45279;-78
2023/12/23 01:48:58;;;;;;;;;0.00;0.00;;;;;;;;5078205;27;45491;-77
2023/12/23 01:51:24;;;;;;;;;1.00;0.00;;;;;;;;5078220;27;45251;-78
2023/12/23 01:53:50;;;;;;;;;1.67;0.00;;;;;;;;5078287;27;45291;-77
2023/12/23 01:56:15;;;;;;;;;1.00;0.00;;;;;;;;5077877;27;45311;-78
2023/12/23 01:58:41;;;;;;;;;1.67;0.00;;;;;;;;5078228;27;45451;-74
2023/12/23 02:01:06;;;;;;;;;1.00;0.00;;;;;;;;5077164;28;45683;-78
2023/12/23 02:03:32;;;;;;;;;0.33;0.00;;;;;;;;5078318;27;45322;-78
2023/12/23 02:05:57;;;;;;;;;0.00;0.00;;;;;;;;5077154;27;45338;-78
2023/12/23 02:08:22;;;;;;;;;0.00;0.00;;;;;;;;5077761;27;45490;-78
2023/12/23 02:10:50;;;;;;;;;1.67;0.67;;;;;;;;5078088;27;45485;-73
2023/12/23 02:13:25;;;;;;;;;2.00;0.00;;;;;;;;5078108;27;45427;-77
2023/12/23 02:15:51;;;;;;;;;1.00;0.00;;;;;;;;5077556;27;46289;-78
2023/12/23 02:18:16;;;;;;;;;2.00;1.00;;;;;;;;5077625;27;45422;-78
2023/12/23 02:20:42;;;;;;;;;2.33;0.67;;;;;;;;5077741;27;45399;-78
2023/12/23 02:23:07;;;;;;;;;1.67;0.00;;;;;;;;5078407;27;45460;-70
2023/12/23 02:25:33;;;;;;;;;0.00;0.00;;;;;;;;5077572;27;45389;-71
2023/12/23 02:28:06;;;;;;;;;1.00;0.00;;;;;;;;5077579;28;45443;-71
2023/12/23 02:30:32;;;;;;;;;0.00;0.00;;;;;;;;5077569;27;45409;-71
2023/12/23 02:32:58;;;;;;;;;1.00;0.00;;;;;;;;5077920;27;45430;-71
2023/12/23 02:35:26;;;;;;;;;1.00;0.00;;;;;;;;5077309;28;46115;-72
2023/12/23 02:37:52;;;;;;;;;0.00;0.00;;;;;;;;5077617;27;45503;-71
2023/12/23 02:40:20;;;;;;;;;1.67;0.00;;;;;;;;5077506;27;45572;-73
2023/12/23 02:42:46;;;;;;;;;0.00;0.00;;;;;;;;5078044;27;46173;-71
2023/12/23 02:45:11;;;;;;;;;1.00;0.67;;;;;;;;5077787;27;45499;-71
2023/12/23 02:47:36;;;;;;;;;0.00;0.00;;;;;;;;5077830;27;45243;-78
2023/12/23 02:50:02;;;;;;;;;0.00;0.00;;;;;;;;5077574;27;45595;-72
2023/12/23 02:52:27;;;;;;;;;1.00;1.00;;;;;;;;5077745;27;45242;-78
2023/12/23 02:54:53;;;;;;;;;0.00;0.00;;;;;;;;5077200;27;45961;-71
2023/12/23 02:57:18;;;;;;;;;1.00;0.00;;;;;;;;5077251;27;45417;-78
2023/12/23 02:59:43;;;;;;;;;2.00;1.00;;;;;;;;5077433;27;45556;-74
2023/12/23 03:02:09;;;;;;;;;1.00;0.00;;;;;;;;5077779;27;45398;-78
2023/12/23 03:04:34;;;;;;;;;0.00;0.00;;;;;;;;5077014;27;45363;-75
2023/12/23 03:07:00;;;;;;;;;1.00;0.00;;;;;;;;5077250;27;45380;-78
2023/12/23 03:09:25;;;;;;;;;0.00;0.00;;;;;;;;5077406;27;45521;-78
2023/12/23 03:11:51;;;;;;;;;1.00;0.00;;;;;;;;5077415;27;45585;-78
2023/12/23 03:14:16;;;;;;;;;1.00;0.00;;;;;;;;5077017;27;45869;-72
2023/12/23 03:16:41;;;;;;;;;0.00;0.00;;;;;;;;5077462;27;45442;-78
2023/12/23 03:19:08;;;;;;;;;0.00;0.00;;;;;;;;5079596;27;45495;-76
2023/12/23 03:21:33;;;;;;;;;1.33;0.00;;;;;;;;5080791;27;45579;-77
2023/12/23 03:23:59;;;;;;;;;1.67;0.67;;;;;;;;5080291;27;45306;-78
2023/12/23 03:26:24;;;;;;;;;0.67;0.00;;;;;;;;5080278;27;45528;-77
2023/12/23 03:28:50;;;;;;;;;1.00;1.00;;;;;;;;5080595;27;45278;-78
2023/12/23 03:31:15;;;;;;;;;0.00;0.00;;;;;;;;5080688;27;45339;-71
2023/12/23 03:33:40;;;;;;;;;0.33;0.00;;;;;;;;5080522;27;45405;-78
2023/12/23 03:36:06;;;;;;;;;0.00;0.00;;;;;;;;5080504;27;45353;-77
2023/12/23 03:38:31;;;;;;;;;1.00;0.00;;;;;;;;5080497;27;45564;-76
2023/12/23 03:40:57;;;;;;;;;0.00;0.00;;;;;;;;5080405;27;45420;-78
2023/12/23 03:43:22;;;;;;;;;0.67;0.00;;;;;;;;5080156;27;45496;-78
2023/12/23 03:45:47;;;;;;;;;0.00;0.00;;;;;;;;5080032;27;45957;-77
2023/12/23 03:48:13;;;;;;;;;1.00;0.00;;;;;;;;5080518;27;45356;-78
2023/12/23 03:50:38;;;;;;;;;0.00;0.00;;;;;;;;5080426;27;45424;-77
2023/12/23 03:53:04;;;;;;;;;1.00;0.00;;;;;;;;5080177;27;45888;-73
2023/12/23 03:55:32;;;;;;;;;0.00;0.00;;;;;;;;5080153;27;45403;-77
2023/12/23 03:58:00;;;;;;;;;2.33;0.00;;;;;;;;5080142;27;45492;-78
2023/12/23 04:00:26;;;;;;;;;0.33;0.00;;;;;;;;5080100;27;45314;-77
2023/12/23 04:02:52;;;;;;;;;0.00;0.00;;;;;;;;5079924;28;46061;-77
2023/12/23 04:05:17;;;;;;;;;1.00;1.00;;;;;;;;5079812;28;45306;-74
2023/12/23 04:07:42;;;;;;;;;0.00;0.00;;;;;;;;5080307;27;45421;-78
2023/12/23 04:10:08;;;;;;;;;0.00;0.00;;;;;;;;5080087;27;45250;-74
2023/12/23 04:12:33;;;;;;;;;0.00;0.00;;;;;;;;5079727;28;45478;-71
2023/12/23 04:14:58;;;;;;;;;0.00;0.00;;;;;;;;5079979;27;45350;-78
2023/12/23 04:17:24;;;;;;;;;0.00;0.00;;;;;;;;5078471;28;45369;-78
2023/12/23 04:19:50;;;;;;;;;1.00;0.00;;;;;;;;5079908;27;45472;-77
2023/12/23 04:22:15;;;;;;;;;0.00;0.00;;;;;;;;5080051;27;46076;-78
2023/12/23 04:24:41;;;;;;;;;0.33;0.00;;;;;;;;5079203;28;45376;-70
2023/12/23 04:27:06;;;;;;;;;0.00;0.00;;;;;;;;5097105;27;45364;-77
2023/12/23 04:29:32;;;;;;;;;0.00;0.00;;;;;;;;5099721;27;45395;-78
2023/12/23 04:31:57;;;;;;;;;0.00;0.00;;;;;;;;5099993;27;45959;-78
2023/12/23 04:34:23;;;;;;;;;0.33;0.00;;;;;;;;5100000;27;45358;-75
2023/12/23 04:36:48;;;;;;;;;1.00;0.00;;;;;;;;5100125;27;45303;-75
2023/12/23 04:39:14;;;;;;;;;0.00;0.00;;;;;;;;5100464;27;45289;-77
2023/12/23 04:41:46;;;;;;;;;0.00;0.00;;;;;;;;5099625;27;46191;-78
2023/12/23 04:44:12;;;;;;;;;0.00;0.00;;;;;;;;5099694;27;45256;-77
2023/12/23 04:46:37;;;;;;;;;0.00;0.00;;;;;;;;5099865;27;45379;-78
2023/12/23 04:49:03;;;;;;;;;0.00;0.00;;;;;;;;5100048;27;45445;-76
2023/12/23 04:51:28;;;;;;;;;0.00;0.00;;;;;;;;5099566;27;45455;-78
2023/12/23 04:53:53;;;;;;;;;0.00;0.00;;;;;;;;5099412;27;45596;-78
2023/12/23 04:56:19;;;;;;;;;0.00;0.00;;;;;;;;5099572;27;45332;-70
2023/12/23 04:58:44;;;;;;;;;0.00;0.00;;;;;;;;5099902;27;45422;-76
2023/12/23 05:01:10;;;;;;;;;0.00;0.00;;;;;;;;5099164;27;45570;-77
2023/12/23 05:03:35;;;;;;;;;0.00;0.00;;;;;;;;5099304;27;45495;-78
2023/12/23 05:06:00;;;;;;;;;0.00;0.00;;;;;;;;5099467;27;45404;-75
2023/12/23 05:08:26;;;;;;;;;0.00;0.00;;;;;;;;5099531;27;45494;-78
2023/12/23 05:10:51;;;;;;;;;1.00;0.00;;;;;;;;5099250;27;45497;-77
2023/12/23 05:13:17;;;;;;;;;0.00;0.00;;;;;;;;5099700;27;45481;-78
2023/12/23 05:15:42;;;;;;;;;0.00;0.00;;;;;;;;5099547;27;45352;-71
2023/12/23 05:18:07;;;;;;;;;0.00;0.00;;;;;;;;5098925;27;45365;-76
2023/12/23 05:20:33;;;;;;;;;1.00;0.00;;;;;;;;5098527;27;45425;-71
2023/12/23 05:22:58;;;;;;;;;0.00;0.00;;;;;;;;5099357;27;45556;-77
2023/12/23 05:25:23;;;;;;;;;0.00;0.00;;;;;;;;5099415;27;45197;-79
2023/12/23 05:27:49;;;;;;;;;0.00;0.00;;;;;;;;5099679;27;45398;-72
2023/12/23 05:30:15;;;;;;;;;0.00;0.00;;;;;;;;5099582;27;45970;-71
2023/12/23 05:32:40;;;;;;;;;0.00;0.00;;;;;;;;5099365;27;45405;-70
2023/12/23 05:35:06;;;;;;;;;0.00;0.00;;;;;;;;5097873;27;45316;-70
2023/12/23 05:37:32;;;;;;;;;0.00;0.00;;;;;;;;5099168;27;45542;-70
2023/12/23 05:39:57;;;;;;;;;0.00;0.00;;;;;;;;5098536;27;46274;-70
2023/12/23 05:42:24;;;;;;;;;0.00;0.00;;;;;;;;5098107;27;45351;-71
2023/12/23 05:44:49;;;;;;;;;1.00;0.00;;;;;;;;5099239;27;45310;-71
2023/12/23 05:47:14;;;;;;;;;0.00;0.00;;;;;;;;5099150;27;45486;-71
2023/12/23 05:49:40;;;;;;;;;0.00;0.00;;;;;;;;5098837;27;45366;-71
2023/12/23 05:52:05;;;;;;;;;0.00;0.00;;;;;;;;5098656;27;45300;-71
2023/12/23 05:54:30;;;;;;;;;0.00;0.00;;;;;;;;5098867;27;45498;-71
2023/12/23 05:56:56;;;;;;;;;0.00;0.00;;;;;;;;5099068;27;45295;-71
2023/12/23 05:59:21;;;;;;;;;0.00;0.00;;;;;;;;5099206;27;46148;-71
2023/12/23 06:01:46;;;;;;;;;0.00;0.00;;;;;;;;5099025;27;45363;-71
2023/12/23 06:04:12;;;;;;;;;0.00;0.00;;;;;;;;5098948;27;45307;-71
2023/12/23 06:06:37;;;;;;;;;0.00;0.00;;;;;;;;5098832;27;45262;-71
2023/12/23 06:09:03;;;;;;;;;0.00;0.00;;;;;;;;5098607;27;46163;-70
2023/12/23 06:11:28;;;;;;;;;0.00;0.00;;;;;;;;5098614;27;45469;-70
2023/12/23 06:13:54;;;;;;;;;0.00;0.00;;;;;;;;5098732;27;45252;-71
2023/12/23 06:16:19;;;;;;;;;0.00;0.00;;;;;;;;5099222;27;45223;-71
2023/12/23 06:18:44;;;;;;;;;0.00;0.00;;;;;;;;5098529;27;45574;-71
2023/12/23 06:21:10;;;;;;;;;0.00;0.00;;;;;;;;5098462;27;45328;-71
2023/12/23 06:23:35;;;;;;;;;0.00;0.00;;;;;;;;5098500;27;45459;-71
2023/12/23 06:26:01;;;;;;;;;0.00;0.00;;;;;;;;5098684;27;45524;-71
2023/12/23 06:28:26;;;;;;;;;0.00;0.00;;;;;;;;5098346;27;45503;-70
2023/12/23 06:30:52;;;;;;;;;1.00;0.00;;;;;;;;5098010;27;45278;-77
2023/12/23 06:33:17;;;;;;;;;0.00;0.00;;;;;;;;5098335;27;45234;-79
2023/12/23 06:35:43;;;;;;;;;2.00;0.00;;;;;;;;5098425;27;45277;-78
2023/12/23 06:38:08;;;;;;;;;0.00;0.00;;;;;;;;5096547;27;45515;-77
2023/12/23 06:40:33;;;;;;;;;0.00;0.00;;;;;;;;5097805;27;45376;-77
2023/12/23 06:43:00;;;;;;;;;0.00;0.00;;;;;;;;5098467;27;45500;-71
2023/12/23 06:45:26;;;;;;;;;0.00;0.00;;;;;;;;5098191;27;45475;-71
2023/12/23 06:47:51;;;;;;;;;1.00;0.00;;;;;;;;5098050;27;45390;-70
2023/12/23 06:50:17;;;;;;;;;0.00;0.00;;;;;;;;5097793;27;45501;-71
2023/12/23 06:52:42;;;;;;;;;0.00;0.00;;;;;;;;5097860;27;45440;-74
2023/12/23 06:55:08;;;;;;;;;4.00;2.67;;;;;;;;5097965;27;45629;-71
2023/12/23 06:57:33;;;;;;;;;3.00;2.33;;;;;;;;5097649;27;45360;-71
2023/12/23 06:59:59;;;;;;;;;4.00;4.00;;;;;;;;5097486;27;45414;-71
2023/12/23 07:02:25;;;;;;;;;4.00;3.33;;;;;;;;5098209;27;45320;-71
2023/12/23 07:04:50;;;;;;;;;10.75;10.75;;;;;;;;5096994;27;45508;-71
2023/12/23 07:07:17;;;;;;;;;2.33;2.00;;;;;;;;5097414;27;45454;-71
2023/12/23 07:09:42;;;;;;;;;2.33;1.33;;;;;;;;5097679;27;45278;-77
2023/12/23 07:12:08;;;;;;;;;1.00;0.00;;;;;;;;5097804;27;45598;-72
2023/12/23 07:14:33;;;;;;;;;1.67;1.00;;;;;;;;5097937;27;45335;-71
2023/12/23 07:16:59;;;;;;;;;0.67;0.00;;;;;;;;5096080;27;45601;-71
2023/12/23 07:19:25;;;;;;;;;0.00;0.00;;;;;;;;5097874;27;45266;-71
2023/12/23 07:21:53;;;;;;;;;1.00;0.67;;;;;;;;5097673;27;45334;-77
2023/12/23 07:24:18;;;;;;;;;0.00;0.00;;;;;;;;5097512;27;45422;-77
2023/12/23 07:26:44;;;;;;;;;39.00;36.00;;;;;;;;5097104;27;45327;-70
2023/12/23 07:29:09;;;;;;;;;2.00;2.00;;;;;;;;5097493;27;45461;-77
2023/12/23 07:31:35;;;;;;;;;0.00;0.00;;;;;;;;5097573;27;45227;-71
2023/12/23 07:34:02;;;;;;;;;0.67;0.00;;;;;;;;5097590;27;45314;-71
2023/12/23 07:36:28;;;;;;;;;0.00;0.00;;;;;;;;5097156;27;45357;-71
2023/12/23 07:38:53;;;;;;;;;1.00;1.00;;;;;;;;5097454;27;45370;-70
2023/12/23 07:41:19;;;;;;;;;0.00;0.00;;;;;;;;5097317;27;45500;-71
2023/12/23 07:43:44;;;;;;;;;7.00;5.33;;;;;;;;5097378;27;45291;-71
2023/12/23 07:46:11;;;;;;;;;10.75;8.00;;;;;;;;5096858;27;45331;-73
2023/12/23 07:48:36;;;;;;;;;11.00;10.75;;;;;;;;5097030;27;45388;-71
2023/12/23 07:51:08;;;;;;;;;6.75;5.00;;;;;;;;5096928;27;45323;-71
2023/12/23 07:53:33;;;;;;;;;3.00;3.00;;;;;;;;5097063;27;45513;-70
2023/12/23 07:55:58;;;;;;;;;6.00;5.33;;;;;;;;5096744;27;45981;-71
2023/12/23 07:58:24;;;;;;;;;12.75;12.75;;;;;;;;5097161;27;45275;-71
2023/12/23 08:00:49;;;;;;;;;16.00;14.75;;;;;;;;5097014;27;45314;-71
2023/12/23 08:03:15;;;;;;;;;14.50;14.25;;;;;;;;5096200;27;45438;-74
2023/12/23 08:05:40;;;;;;;;;17.50;15.50;;;;;;;;5098853;27;46736;-71
2023/12/23 08:08:07;;;;;;;;;12.25;10.00;;;;;;;;5100292;27;45306;-71
2023/12/23 08:10:33;;;;;;;;;6.75;4.75;;;;;;;;5059657;27;45701;-76
2023/12/23 08:12:58;;;;;;;;;5.33;4.00;;;;;;;;5059283;28;45382;-73
2023/12/23 08:15:24;;;;;;;;;78.50;59.00;;;;;;;;5058439;28;46115;-71
2023/12/23 08:17:49;;;;;;;;;13.00;12.75;;;;;;;;5058759;28;45446;-71
2023/12/23 08:20:15;;;;;;;;;30.00;24.75;;;;;;;;5058890;28;45483;-71
2023/12/23 08:22:41;;;;;;;;;25.25;23.75;;;;;;;;5059466;28;45399;-71
2023/12/23 08:25:07;;;;;;;;;18.50;18.00;;;;;;;;5058039;28;46262;-73
2023/12/23 08:27:32;;;;;;;;;11.00;10.00;;;;;;;;5058159;28;45483;-78
2023/12/23 08:29:57;;;;;;;;;31.75;27.50;;;;;;;;5059054;28;45423;-78
2023/12/23 08:32:23;;;;;;;;;23.50;22.00;;;;;;;;5058949;28;45518;-77
2023/12/23 08:34:48;;;;;;;;;24.25;22.00;;;;;;;;5058372;28;46128;-71
2023/12/23 08:37:13;;;;;;;;;16.50;15.00;;;;;;;;5058789;28;45450;-74
2023/12/23 08:39:39;;;;;;;;;12.00;11.50;;;;;;;;5059007;28;45391;-72
2023/12/23 08:42:04;;;;;;;;;22.00;20.00;;;;;;;;5058771;28;45557;-77
2023/12/23 08:44:30;;;;;;;;;33.00;31.75;;;;;;;;5058661;28;45494;-74
2023/12/23 08:46:55;;;;;;;;;14.25;13.00;;;;;;;;5058912;28;45467;-78
2023/12/23 08:49:21;;;;;;;;;13.75;13.00;;;;;;;;5058537;28;45406;-78
2023/12/23 08:51:46;;;;;;;;;12.75;11.75;;;;;;;;5058782;28;45353;-74
2023/12/23 08:54:12;;;;;;;;;56.50;45.50;;;;;;;;5070764;28;45471;-71
2023/12/23 08:56:39;;;;;;;;;40.25;35.00;;;;;;;;5078892;27;45473;-71
2023/12/23 08:59:04;;;;;;;;;59.75;47.25;;;;;;;;5078973;27;45507;-71
2023/12/23 09:01:29;;;;;;;;;46.00;36.50;;;;;;;;5079411;27;45330;-71
2023/12/23 09:03:55;;;;;;;;;52.50;40.00;;;;;;;;5078556;27;45525;-71
2023/12/23 09:06:23;;;;;;;;;34.50;32.25;;;;;;;;5078761;27;45536;-71
2023/12/23 09:08:51;;;;;;;;;49.00;38.50;;;;;;;;5078969;27;45311;-71
2023/12/23 09:11:16;;;;;;;;;52.75;42.50;;;;;;;;5078791;27;45342;-70
2023/12/23 09:13:41;;;;;;;;;49.25;39.75;;;;;;;;5078560;27;45982;-71
2023/12/23 09:16:07;;;;;;;;;30.50;28.00;;;;;;;;5078633;27;45424;-70
2023/12/23 09:18:32;;;;;;;;;26.75;26.00;;;;;;;;5078667;27;45243;-71
2023/12/23 09:20:58;;;;;;;;;20.50;18.00;;;;;;;;5079278;27;45530;-71
2023/12/23 09:23:23;;;;;;;;;13.25;12.75;;;;;;;;5078446;27;46026;-71
2023/12/23 09:25:48;;;;;;;;;6.00;6.00;;;;;;;;5078574;27;45279;-72
2023/12/23 09:28:14;;;;;;;;;6.67;6.00;;;;;;;;5078788;27;45466;-75
2023/12/23 09:30:39;;;;;;;;;5.00;5.00;;;;;;;;5078582;27;45170;-76
2023/12/23 09:33:05;;;;;;;;;6.00;5.00;;;;;;;;5078229;27;46279;-76
2023/12/23 09:35:31;;;;;;;;;4.00;4.00;;;;;;;;5078702;27;45399;-71
2023/12/23 09:37:56;;;;;;;;;4.00;2.33;;;;;;;;5078693;27;45344;-77
2023/12/23 09:40:22;;;;;;;;;2.00;1.33;;;;;;;;5078773;27;45446;-77
2023/12/23 09:42:48;;;;;;;;;10.00;8.33;;;;;;;;5077816;27;45586;-77
2023/12/23 09:45:15;;;;;;;;;2.00;2.00;;;;;;;;5078237;27;45445;-71
2023/12/23 09:47:40;;;;;;;;;5.00;5.00;;;;;;;;5078320;27;45527;-71
2023/12/23 09:50:06;;;;;;;;;10.50;9.00;;;;;;;;5077991;27;45334;-71
2023/12/23 09:52:31;;;;;;;;;15.00;14.25;;;;;;;;5076910;28;46216;-71
2023/12/23 09:54:57;;;;;;;;;22.00;21.00;;;;;;;;5077903;27;45572;-72
2023/12/23 09:57:23;;;;;;;;;17.00;15.25;;;;;;;;5078287;27;45403;-72
2023/12/23 09:59:49;;;;;;;;;18.75;18.75;;;;;;;;5078311;27;45281;-72
2023/12/23 10:02:15;;;;;;;;;19.00;16.25;;;;;;;;5077656;27;46036;-72
2023/12/23 10:04:40;;;;;;;;;11.75;9.50;;;;;;;;5077978;27;45475;-80
2023/12/23 10:07:06;;;;;;;;;12.50;11.50;;;;;;;;5077974;27;45414;-75
2023/12/23 10:09:32;;;;;;;;;14.00;12.00;;;;;;;;5078505;27;45334;-83
2023/12/23 10:11:57;;;;;;;;;5.33;4.67;;;;;;;;5077515;27;46198;-71
2023/12/23 10:14:25;;;;;;;;;4.67;4.33;;;;;;;;5077675;27;45447;-71
2023/12/23 10:16:51;;;;;;;;;6.33;5.33;;;;;;;;5077830;27;45361;-78
2023/12/23 10:19:16;;;;;;;;;4.00;3.00;;;;;;;;5077938;27;45456;-71
2023/12/23 10:21:41;;;;;;;;;8.33;6.67;;;;;;;;5077600;27;45347;-79
2023/12/23 10:24:07;;;;;;;;;12.33;9.67;;;;;;;;5077652;27;46159;-71
2023/12/23 10:26:33;;;;;;;;;2.00;2.00;;;;;;;;5077636;28;45528;-71
2023/12/23 10:29:02;;;;;;;;;7.00;7.00;;;;;;;;5077948;27;45321;-71
2023/12/23 10:31:29;;;;;;;;;8.33;8.00;;;;;;;;5077397;27;45398;-74
2023/12/23 10:33:59;;;;;;;;;0.00;0.00;;;;;;;;5077646;27;45988;-72
2023/12/23 10:36:25;;;;;;;;;2.33;2.00;;;;;;;;5077544;27;45326;-72
2023/12/23 10:38:53;;;;;;;;;0.67;0.67;;;;;;;;5077648;27;45226;-73
2023/12/23 10:41:21;;;;;;;;;1.00;1.00;;;;;;;;5077083;27;46157;-81
2023/12/23 10:43:47;;;;;;;;;1.67;1.00;;;;;;;;5077574;27;45405;-80
2023/12/23 10:46:14;;;;;;;;;11.67;8.33;;;;;;;;5077789;28;45371;-79
2023/12/23 10:48:40;;;;;;;;;5.00;5.00;;;;;;;;5087975;27;45388;-75
2023/12/23 10:51:05;;;;;;;;;3.33;2.00;;;;;;;;5098188;27;45295;-72
2023/12/23 10:53:31;;;;;;;;;4.67;4.33;;;;;;;;5097986;27;45415;-74
2023/12/23 10:55:57;;;;;;;;;12.00;12.00;;;;;;;;5097201;27;45472;-75
2023/12/23 10:58:23;;;;;;;;;8.67;7.67;;;;;;;;5097125;27;45344;-71
2023/12/23 11:00:49;;;;;;;;;9.33;8.00;;;;;;;;5096456;27;45377;-74
2023/12/23 11:03:15;;;;;;;;;2.00;2.00;;;;;;;;5096654;27;45498;-75
2023/12/23 11:05:42;;;;;;;;;1.00;1.00;;;;;;;;5096887;27;45528;-71
2023/12/23 11:08:11;;;;;;;;;1.00;1.00;;;;;;;;5094248;27;45426;-71
2023/12/23 11:10:37;;;;;;;;;6.00;5.00;;;;;;;;5096924;27;46232;-71
2023/12/23 11:13:03;;;;;;;;;2.67;2.33;;;;;;;;5095425;27;45494;-73
2023/12/23 11:15:29;;;;;;;;;2.67;2.00;;;;;;;;5095512;27;45370;-72
2023/12/23 11:17:54;;;;;;;;;3.33;3.33;;;;;;;;5096672;27;45472;-71
2023/12/23 11:20:35;;;;;;;;;4.00;3.00;;;;;;;;5095772;27;46013;-73
2023/12/23 11:23:20;;;;;;;;;4.00;4.00;;;;;;;;5096020;27;45511;-71
2023/12/23 11:25:46;;;;;;;;;4.00;3.00;;;;;;;;5095884;27;45418;-71
2023/12/23 11:28:14;;;;;;;;;3.00;3.00;;;;;;;;5095922;27;45415;-80
2023/12/23 11:30:50;;;;;;;;;5.00;5.00;;;;;;;;5095684;27;46278;-71
2023/12/23 11:33:18;;;;;;;;;4.00;3.67;;;;;;;;5094083;27;45719;-72
2023/12/23 11:35:50;;;;;;;;;3.00;2.67;;;;;;;;5095681;27;45502;-71
2023/12/23 11:38:15;;;;;;;;;3.67;3.00;;;;;;;;5093430;27;45511;-72
2023/12/23 11:40:42;;;;;;;;;1.00;1.00;;;;;;;;5099141;27;46193;-71
2023/12/23 11:43:07;;;;;;;;;1.00;1.00;;;;;;;;5100800;27;45305;-73
2023/12/23 11:45:33;;;;;;;;;0.00;0.00;;;;;;;;5100965;27;45413;-71
2023/12/23 11:47:58;;;;;;;;;0.00;0.00;;;;;;;;5100317;27;45630;-71
2023/12/23 11:50:24;;;;;;;;;1.00;1.00;;;;;;;;5099623;27;46286;-72
2023/12/23 11:52:49;;;;;;;;;1.00;1.00;;;;;;;;5099458;27;45599;-78
2023/12/23 11:55:16;;;;;;;;;0.00;0.00;;;;;;;;5099887;27;45421;-76
2023/12/23 11:57:41;;;;;;;;;1.00;1.00;;;;;;;;5099847;27;45295;-76
2023/12/23 12:00:07;;;;;;;;;2.00;1.67;;;;;;;;5099479;27;46233;-77
2023/12/23 12:02:33;;;;;;;;;0.33;0.00;;;;;;;;5099999;27;45946;-78
2023/12/23 12:04:58;;;;;;;;;2.00;0.00;;;;;;;;5100057;27;45254;-77
2023/12/23 12:07:23;;;;;;;;;0.00;0.00;;;;;;;;5100228;27;45608;-76
2023/12/23 12:09:49;;;;;;;;;1.33;1.00;;;;;;;;5100207;27;45840;-78
2023/12/23 12:12:15;;;;;;;;;0.00;0.00;;;;;;;;5100016;27;45467;-78
2023/12/23 12:14:40;;;;;;;;;1.00;0.00;;;;;;;;5099682;27;45668;-72
2023/12/23 12:17:08;;;;;;;;;1.00;0.00;;;;;;;;5100452;27;45449;-72
2023/12/23 12:19:34;;;;;;;;;0.00;0.00;;;;;;;;5100278;27;45321;-71
2023/12/23 12:22:00;;;;;;;;;0.67;0.00;;;;;;;;5099857;27;45473;-72
2023/12/23 12:24:26;;;;;;;;;1.00;1.00;;;;;;;;5099793;27;45178;-71
2023/12/23 12:26:52;;;;;;;;;1.67;1.00;;;;;;;;5100416;27;45493;-72
2023/12/23 12:29:21;;;;;;;;;1.00;1.00;;;;;;;;5099817;27;46018;-71
2023/12/23 12:31:46;;;;;;;;;0.00;0.00;;;;;;;;5099814;27;45408;-78
2023/12/23 12:34:12;;;;;;;;;0.00;0.00;;;;;;;;5098550;27;45427;-77
2023/12/23 12:36:38;;;;;;;;;0.00;0.00;;;;;;;;5100096;27;45341;-71
2023/12/23 12:39:03;;;;;;;;;2.00;1.00;;;;;;;;5099930;27;45938;-77
2023/12/23 12:41:29;;;;;;;;;1.67;1.67;;;;;;;;5099467;27;45368;-71
2023/12/23 12:43:55;;;;;;;;;1.00;1.00;;;;;;;;5099731;27;45306;-75
2023/12/23 12:46:20;;;;;;;;;0.00;0.00;;;;;;;;5099908;27;45480;-78
2023/12/23 12:48:46;;;;;;;;;0.00;0.00;;;;;;;;5098307;27;46570;-72
2023/12/23 12:51:13;;;;;;;;;0.67;0.00;;;;;;;;5099094;27;45605;-71
2023/12/23 12:53:39;;;;;;;;;0.00;0.00;;;;;;;;5099687;27;45421;-71
2023/12/23 12:56:11;;;;;;;;;0.00;0.00;;;;;;;;5099978;27;45539;-78
2023/12/23 12:58:37;;;;;;;;;0.00;0.00;;;;;;;;5099694;27;46122;-71
2023/12/23 13:01:02;;;;;;;;;0.00;0.00;;;;;;;;5099681;27;45518;-78
2023/12/23 13:03:29;;;;;;;;;1.00;1.00;;;;;;;;5099268;27;45214;-71
2023/12/23 13:05:54;;;;;;;;;2.33;2.00;;;;;;;;5099538;27;45526;-72
2023/12/23 13:08:20;;;;;;;;;0.00;0.00;;;;;;;;5099258;27;46127;-71
2023/12/23 13:10:45;;;;;;;;;0.67;0.00;;;;;;;;5099260;27;45486;-71
2023/12/23 13:13:10;;;;;;;;;0.00;0.00;;;;;;;;5099028;27;45470;-72
2023/12/23 13:15:36;;;;;;;;;0.00;0.00;;;;;;;;5099709;27;45504;-78
2023/12/23 13:18:01;;;;;;;;;0.00;0.00;;;;;;;;5098987;27;45483;-78
2023/12/23 13:20:26;;;;;;;;;0.00;0.00;;;;;;;;5099193;27;45465;-71
2023/12/23 13:22:52;;;;;;;;;0.00;0.00;;;;;;;;5099241;27;45756;-76
2023/12/23 13:25:17;;;;;;;;;0.00;0.00;;;;;;;;5099148;27;45360;-72
2023/12/23 13:27:43;;;;;;;;;0.00;0.00;;;;;;;;5099077;27;45808;-71
2023/12/23 13:30:08;;;;;;;;;0.00;0.00;;;;;;;;5098946;27;45462;-72
2023/12/23 13:32:34;;;;;;;;;0.00;0.00;;;;;;;;5099420;27;45410;-72
2023/12/23 13:35:00;;;;;;;;;0.00;0.00;;;;;;;;5099364;27;45259;-77
2023/12/23 13:37:26;;;;;;;;;0.67;0.33;;;;;;;;5098515;27;45526;-71
2023/12/23 13:39:51;;;;;;;;;0.00;0.00;;;;;;;;5098540;27;45339;-72
2023/12/23 13:42:18;;;;;;;;;0.00;0.00;;;;;;;;5097352;27;45332;-72
2023/12/23 13:44:43;;;;;;;;;0.33;0.00;;;;;;;;5098964;27;45265;-71
2023/12/23 13:47:09;;;;;;;;;0.00;0.00;;;;;;;;5098297;27;45393;-73
2023/12/23 13:49:34;;;;;;;;;0.00;0.00;;;;;;;;5099047;27;45494;-71
2023/12/23 13:52:00;;;;;;;;;0.00;0.00;;;;;;;;5098675;27;45312;-71
2023/12/23 13:54:26;;;;;;;;;0.00;0.00;;;;;;;;5098521;27;45516;-72
2023/12/23 13:56:51;;;;;;;;;0.00;0.00;;;;;;;;5098207;27;46164;-78
2023/12/23 13:59:17;;;;;;;;;0.00;0.00;;;;;;;;5098259;27;45439;-71
2023/12/23 14:01:42;;;;;;;;;0.00;0.00;;;;;;;;5097604;27;45681;-71
2023/12/23 14:04:07;;;;;;;;;0.00;0.00;;;;;;;;5098682;27;45786;-74
2023/12/23 14:06:33;;;;;;;;;0.00;0.00;;;;;;;;5098461;27;45415;-72
2023/12/23 14:08:59;;;;;;;;;0.00;0.00;;;;;;;;5098164;27;45453;-77
2023/12/23 14:11:24;;;;;;;;;0.00;0.00;;;;;;;;5098137;27;45402;-72
2023/12/23 14:13:49;;;;;;;;;0.00;0.00;;;;;;;;5098531;27;45355;-72
2023/12/23 14:16:15;;;;;;;;;2.67;2.00;;;;;;;;5098037;27;46044;-72
2023/12/23 14:18:41;;;;;;;;;0.00;0.00;;;;;;;;5098357;27;45618;-71
2023/12/23 14:21:07;;;;;;;;;0.00;0.00;;;;;;;;5098447;27;45420;-72
2023/12/23 14:23:33;;;;;;;;;0.00;0.00;;;;;;;;5098245;27;45162;-78
2023/12/23 14:25:59;;;;;;;;;0.67;0.00;;;;;;;;5096260;27;46233;-76
2023/12/23 14:28:24;;;;;;;;;3.00;3.00;;;;;;;;5097129;27;45465;-76
2023/12/23 14:30:49;;;;;;;;;0.00;0.00;;;;;;;;5097244;27;45461;-73
2023/12/23 14:33:15;;;;;;;;;0.00;0.00;;;;;;;;5097257;27;45499;-72